Time;durP1;ratioP1;P1;durP2;ratioP2;P2;SDS_P1;SDS_P2;PMS_P1;PMS_P2;Temp;Humidity;BMP_temperature;BMP_pressure;BME280_temperature;BME280_humidity;BME280_pressure;Samples;Min_cycle;Max_cycle;Signal;HPM_P1;HPM_P2
2022/01/29 00:01:44;;;;;;;57.58;33.90;;;;;;;;;;5093146;28;20088;-64
2022/01/29 00:04:11;;;;;;;60.33;35.38;;;;;;;;;;5092936;28;20116;-64
2022/01/29 00:06:37;;;;;;;62.72;35.85;;;;;;;;;;5092721;28;20386;-64
2022/01/29 00:09:03;;;;;;;58.63;34.50;;;;;;;;;;5093472;28;20105;-64
2022/01/29 00:11:35;;;;;;;59.35;35.42;;;;;;;;;;5092969;28;20044;-64
2022/01/29 00:14:01;;;;;;;60.75;36.00;;;;;;;;;;5093295;28;20051;-65
2022/01/29 00:16:28;;;;;;;58.65;34.88;;;;;;;;;;5092889;28;20101;-64
2022/01/29 00:18:54;;;;;;;61.17;36.22;;;;;;;;;;5093411;28;20446;-65
2022/01/29 00:21:20;;;;;;;58.03;35.92;;;;;;;;;;5092734;28;20104;-64
2022/01/29 00:23:47;;;;;;;54.40;33.80;;;;;;;;;;5092474;28;20067;-64
2022/01/29 00:26:13;;;;;;;55.58;34.85;;;;;;;;;;5093210;28;20051;-64
2022/01/29 00:28:40;;;;;;;59.63;36.67;;;;;;;;;;5092900;28;20050;-66
2022/01/29 00:31:10;;;;;;;57.40;35.42;;;;;;;;;;5074352;28;20054;-65
2022/01/29 00:33:37;;;;;;;57.40;35.75;;;;;;;;;;5092661;28;20116;-64
2022/01/29 00:36:03;;;;;;;57.53;35.40;;;;;;;;;;5093060;28;20500;-65
2022/01/29 00:38:29;;;;;;;59.05;35.33;;;;;;;;;;5092974;28;20039;-64
2022/01/29 00:40:55;;;;;;;58.30;35.83;;;;;;;;;;5092923;28;20036;-63
2022/01/29 00:43:21;;;;;;;60.72;36.33;;;;;;;;;;5092591;28;20115;-63
2022/01/29 00:45:48;;;;;;;58.38;36.47;;;;;;;;;;5092899;28;20066;-62
2022/01/29 00:48:14;;;;;;;59.25;36.85;;;;;;;;;;5093129;28;20043;-63
2022/01/29 00:50:40;;;;;;;58.13;35.55;;;;;;;;;;5092150;28;20082;-64
2022/01/29 00:53:06;;;;;;;55.70;36.50;;;;;;;;;;5092323;28;20089;-63
2022/01/29 00:55:32;;;;;;;59.83;35.88;;;;;;;;;;5092485;28;20040;-63
2022/01/29 00:57:58;;;;;;;60.42;34.90;;;;;;;;;;5093012;28;20036;-63
2022/01/29 01:00:25;;;;;;;57.65;35.08;;;;;;;;;;5092688;28;20032;-63
2022/01/29 01:02:51;;;;;;;54.30;33.15;;;;;;;;;;5092299;28;20488;-63
2022/01/29 01:05:17;;;;;;;57.65;33.63;;;;;;;;;;5092463;28;20032;-63
2022/01/29 01:07:43;;;;;;;54.33;34.75;;;;;;;;;;5074177;28;20101;-63
2022/01/29 01:10:11;;;;;;;61.60;34.33;;;;;;;;;;5090965;28;20036;-63
2022/01/29 01:12:37;;;;;;;57.78;34.30;;;;;;;;;;5051678;28;20044;-63
2022/01/29 01:15:04;;;;;;;55.78;33.85;;;;;;;;;;5074397;28;20041;-63
2022/01/29 01:17:30;;;;;;;56.42;34.58;;;;;;;;;;5061682;28;20080;-64
2022/01/29 01:19:56;;;;;;;52.65;34.05;;;;;;;;;;5070267;28;20039;-63
2022/01/29 01:22:22;;;;;;;60.20;35.13;;;;;;;;;;5072573;28;20040;-63
2022/01/29 01:24:48;;;;;;;54.88;33.88;;;;;;;;;;5067807;28;20033;-61
2022/01/29 01:27:15;;;;;;;59.35;35.67;;;;;;;;;;5096338;28;20051;-63
2022/01/29 01:29:42;;;;;;;58.92;33.60;;;;;;;;;;5095986;28;20045;-64
2022/01/29 01:32:11;;;;;;;57.47;34.17;;;;;;;;;;5095433;28;20051;-62
2022/01/29 01:34:42;;;;;;;58.53;34.15;;;;;;;;;;5096008;28;20039;-65
2022/01/29 01:42:13;;;;;;;59.50;34.67;;;;;;;;;;5114897;28;20042;-65
2022/01/29 01:47:08;;;;;;;60.67;32.90;;;;;;;;;;5074448;28;20055;-64
2022/01/29 01:49:34;;;;;;;58.72;34.20;;;;;;;;;;5075689;28;20041;-64
2022/01/29 01:52:00;;;;;;;53.40;31.55;;;;;;;;;;5079151;28;20472;-63
2022/01/29 01:54:27;;;;;;;53.72;31.70;;;;;;;;;;5095966;28;20027;-64
2022/01/29 01:56:53;;;;;;;53.88;31.67;;;;;;;;;;5077440;28;20039;-64
2022/01/29 01:59:20;;;;;;;57.03;32.65;;;;;;;;;;5095562;28;20090;-64
2022/01/29 02:01:47;;;;;;;56.65;32.17;;;;;;;;;;5094792;28;20054;-64
2022/01/29 02:04:13;;;;;;;49.22;30.83;;;;;;;;;;5095500;28;20522;-63
2022/01/29 02:06:39;;;;;;;51.63;29.60;;;;;;;;;;5095548;28;20040;-64
2022/01/29 02:09:05;;;;;;;55.15;30.63;;;;;;;;;;5095579;28;20035;-64
2022/01/29 02:11:32;;;;;;;53.83;29.88;;;;;;;;;;5095256;28;20032;-64
2022/01/29 02:14:00;;;;;;;53.00;29.08;;;;;;;;;;5095482;28;20073;-64
2022/01/29 02:16:27;;;;;;;55.97;30.02;;;;;;;;;;5095305;28;20473;-63
2022/01/29 02:18:54;;;;;;;51.72;29.58;;;;;;;;;;5085406;28;20040;-63
2022/01/29 02:21:21;;;;;;;49.30;28.13;;;;;;;;;;5074951;28;20090;-63
2022/01/29 02:23:49;;;;;;;53.85;28.98;;;;;;;;;;5075689;28;20046;-64
2022/01/29 02:26:15;;;;;;;47.25;28.95;;;;;;;;;;5075284;28;20040;-65
2022/01/29 02:28:41;;;;;;;47.17;26.35;;;;;;;;;;5075179;28;20044;-64
2022/01/29 02:31:07;;;;;;;47.88;28.55;;;;;;;;;;5075227;28;20546;-64
2022/01/29 02:33:34;;;;;;;48.08;27.75;;;;;;;;;;5074712;28;20394;-64
2022/01/29 02:36:01;;;;;;;42.83;25.15;;;;;;;;;;5074551;28;20072;-65
2022/01/29 02:38:27;;;;;;;52.83;29.15;;;;;;;;;;5074803;28;20519;-64
2022/01/29 02:40:58;;;;;;;48.05;26.58;;;;;;;;;;5074707;28;20041;-65
2022/01/29 02:43:28;;;;;;;49.22;27.83;;;;;;;;;;5074701;28;20123;-66
2022/01/29 02:45:54;;;;;;;50.20;29.05;;;;;;;;;;5084164;28;20467;-65
2022/01/29 02:48:21;;;;;;;52.22;28.75;;;;;;;;;;5059800;28;20044;-65
2022/01/29 02:50:48;;;;;;;51.53;29.75;;;;;;;;;;5094806;28;20493;-66
2022/01/29 02:53:14;;;;;;;50.72;28.58;;;;;;;;;;5094001;28;20116;-66
2022/01/29 02:55:40;;;;;;;51.75;30.25;;;;;;;;;;5094302;28;20036;-65
2022/01/29 02:58:07;;;;;;;54.70;29.88;;;;;;;;;;5094532;28;20415;-66
2022/01/29 03:00:34;;;;;;;51.03;29.40;;;;;;;;;;5094713;28;20437;-65
2022/01/29 03:03:00;;;;;;;51.17;29.10;;;;;;;;;;5094329;28;20081;-65
2022/01/29 03:05:26;;;;;;;54.78;28.92;;;;;;;;;;5094389;28;20122;-64
2022/01/29 03:07:52;;;;;;;50.47;27.80;;;;;;;;;;5094455;28;20385;-65
2022/01/29 03:10:19;;;;;;;51.85;30.00;;;;;;;;;;5094374;28;20547;-66
2022/01/29 03:12:45;;;;;;;50.53;27.67;;;;;;;;;;5093775;28;20093;-65
2022/01/29 03:15:12;;;;;;;56.05;28.92;;;;;;;;;;5093167;28;20028;-65
2022/01/29 03:17:42;;;;;;;51.85;27.63;;;;;;;;;;5094276;28;20097;-64
2022/01/29 03:20:09;;;;;;;53.08;28.27;;;;;;;;;;5094450;28;20389;-64
2022/01/29 03:22:35;;;;;;;52.53;29.13;;;;;;;;;;5094130;28;20032;-64
2022/01/29 03:25:02;;;;;;;54.22;27.23;;;;;;;;;;5076028;28;20036;-65
2022/01/29 03:27:28;;;;;;;52.97;28.70;;;;;;;;;;5093907;28;20056;-65
2022/01/29 03:29:54;;;;;;;51.50;28.70;;;;;;;;;;5093971;28;20051;-66
2022/01/29 03:32:22;;;;;;;53.90;28.83;;;;;;;;;;5042467;28;20049;-66
2022/01/29 03:34:50;;;;;;;49.38;27.08;;;;;;;;;;5075419;28;20039;-65
2022/01/29 03:37:17;;;;;;;53.47;28.73;;;;;;;;;;5075816;28;20084;-65
2022/01/29 03:39:46;;;;;;;49.80;28.95;;;;;;;;;;5059302;28;20388;-66
2022/01/29 03:42:14;;;;;;;53.72;29.58;;;;;;;;;;5057592;28;20416;-64
2022/01/29 03:44:42;;;;;;;54.17;29.70;;;;;;;;;;5058732;28;20488;-65
2022/01/29 03:47:11;;;;;;;54.95;29.65;;;;;;;;;;5058825;28;20071;-65
2022/01/29 03:49:40;;;;;;;56.45;30.50;;;;;;;;;;5058518;28;20042;-65
2022/01/29 03:52:07;;;;;;;51.83;28.50;;;;;;;;;;5058613;28;20083;-63
2022/01/29 03:54:33;;;;;;;53.17;29.95;;;;;;;;;;5093674;28;20492;-63
2022/01/29 03:56:59;;;;;;;50.20;28.63;;;;;;;;;;5093478;28;20097;-63
2022/01/29 03:59:25;;;;;;;57.03;30.67;;;;;;;;;;5093616;28;20131;-62
2022/01/29 04:01:51;;;;;;;52.70;31.65;;;;;;;;;;5093407;28;20082;-65
2022/01/29 04:04:18;;;;;;;51.60;27.77;;;;;;;;;;5093495;28;20039;-63
2022/01/29 04:06:44;;;;;;;57.13;30.20;;;;;;;;;;5092968;28;20050;-63
2022/01/29 04:09:11;;;;;;;59.33;31.02;;;;;;;;;;5092972;28;20040;-64
2022/01/29 04:11:38;;;;;;;55.65;30.75;;;;;;;;;;5092933;28;20378;-65
2022/01/29 04:14:16;;;;;;;51.42;29.80;;;;;;;;;;5093136;28;20424;-64
2022/01/29 04:16:42;;;;;;;59.53;30.55;;;;;;;;;;5074241;28;20044;-63
2022/01/29 04:19:09;;;;;;;60.17;29.48;;;;;;;;;;5092586;28;20040;-64
2022/01/29 04:21:35;;;;;;;57.72;30.70;;;;;;;;;;5092858;28;20127;-65
2022/01/29 04:24:01;;;;;;;57.65;31.15;;;;;;;;;;5092763;28;20119;-64
2022/01/29 04:26:33;;;;;;;56.10;28.67;;;;;;;;;;5092968;28;20032;-64
2022/01/29 04:28:59;;;;;;;58.95;29.95;;;;;;;;;;5092758;28;20113;-65
2022/01/29 04:31:35;;;;;;;55.95;29.23;;;;;;;;;;5092574;28;20404;-63
2022/01/29 04:34:02;;;;;;;52.40;28.42;;;;;;;;;;5092934;28;20044;-63
2022/01/29 04:36:28;;;;;;;55.08;28.80;;;;;;;;;;5092937;28;20044;-63
2022/01/29 04:38:54;;;;;;;53.60;28.60;;;;;;;;;;5093254;28;20044;-63
2022/01/29 04:41:21;;;;;;;50.38;28.27;;;;;;;;;;5092330;28;20061;-63
2022/01/29 04:43:48;;;;;;;49.15;27.42;;;;;;;;;;5092801;28;20400;-63
2022/01/29 04:46:14;;;;;;;50.20;27.23;;;;;;;;;;5092379;28;20040;-63
2022/01/29 04:48:40;;;;;;;57.55;27.70;;;;;;;;;;5074342;28;20047;-64
2022/01/29 04:51:06;;;;;;;52.50;26.75;;;;;;;;;;5092520;28;20039;-64
2022/01/29 04:53:32;;;;;;;44.20;26.08;;;;;;;;;;5073561;28;20042;-63
2022/01/29 04:55:59;;;;;;;47.38;26.70;;;;;;;;;;5092411;28;20048;-63
2022/01/29 04:58:25;;;;;;;49.65;26.60;;;;;;;;;;5074287;28;20519;-63
2022/01/29 05:00:51;;;;;;;44.83;26.27;;;;;;;;;;5092513;28;20076;-63
2022/01/29 05:03:17;;;;;;;43.83;24.25;;;;;;;;;;5092093;28;20093;-63
2022/01/29 05:05:44;;;;;;;40.53;23.77;;;;;;;;;;5092725;28;20075;-64
2022/01/29 05:08:14;;;;;;;52.20;24.73;;;;;;;;;;5074434;28;20067;-64
2022/01/29 05:10:40;;;;;;;42.33;23.77;;;;;;;;;;5091906;28;20079;-65
2022/01/29 05:13:09;;;;;;;41.25;22.98;;;;;;;;;;5091738;28;20051;-65
2022/01/29 05:15:43;;;;;;;35.53;21.38;;;;;;;;;;5091143;28;20036;-65
2022/01/29 05:29:10;;;;;;;37.47;21.08;;;;;;;;;;5092334;28;20044;-64
2022/01/29 05:31:37;;;;;;;35.47;20.17;;;;;;;;;;5092075;28;20404;-68
2022/01/29 05:34:03;;;;;;;34.28;20.88;;;;;;;;;;5092106;28;20469;-65
2022/01/29 05:36:29;;;;;;;34.42;20.02;;;;;;;;;;5092152;28;20492;-65
2022/01/29 05:38:55;;;;;;;30.83;20.08;;;;;;;;;;5091932;28;20087;-64
2022/01/29 05:41:21;;;;;;;33.67;19.65;;;;;;;;;;5092084;28;20068;-65
2022/01/29 05:43:48;;;;;;;33.50;19.77;;;;;;;;;;5092355;28;20043;-65
2022/01/29 05:46:14;;;;;;;33.03;19.10;;;;;;;;;;5091794;28;20044;-64
2022/01/29 05:48:41;;;;;;;32.85;19.08;;;;;;;;;;5092244;28;20206;-65
2022/01/29 05:51:08;;;;;;;33.47;21.08;;;;;;;;;;5092147;28;20507;-64
2022/01/29 05:53:34;;;;;;;33.15;20.05;;;;;;;;;;5091977;28;20486;-65
2022/01/29 05:56:01;;;;;;;30.88;19.33;;;;;;;;;;5092076;28;20165;-66
2022/01/29 05:58:27;;;;;;;30.80;19.45;;;;;;;;;;5092264;28;20127;-65
2022/01/29 06:00:54;;;;;;;39.22;19.10;;;;;;;;;;5072531;28;20036;-65
2022/01/29 06:03:20;;;;;;;31.60;18.77;;;;;;;;;;5080067;28;20440;-64
2022/01/29 06:05:46;;;;;;;31.77;19.85;;;;;;;;;;5076291;28;20054;-65
2022/01/29 06:08:12;;;;;;;34.42;19.65;;;;;;;;;;5095424;28;20055;-66
2022/01/29 06:10:38;;;;;;;36.22;21.92;;;;;;;;;;5095359;28;20040;-65
2022/01/29 06:13:08;;;;;;;35.88;21.15;;;;;;;;;;5089404;28;20444;-65
2022/01/29 06:15:35;;;;;;;36.38;21.27;;;;;;;;;;5083077;28;20047;-64
2022/01/29 06:18:02;;;;;;;47.08;27.65;;;;;;;;;;5084053;28;20048;-65
2022/01/29 06:20:29;;;;;;;32.35;22.20;;;;;;;;;;5074667;28;20048;-65
2022/01/29 06:22:55;;;;;;;41.65;23.60;;;;;;;;;;5075841;28;20126;-65
2022/01/29 06:25:21;;;;;;;35.90;20.85;;;;;;;;;;5084201;28;20040;-65
2022/01/29 06:27:47;;;;;;;28.10;18.30;;;;;;;;;;5083281;28;20119;-64
2022/01/29 06:30:15;;;;;;;30.42;18.10;;;;;;;;;;5095114;28;20062;-66
2022/01/29 06:32:41;;;;;;;34.70;19.73;;;;;;;;;;5076236;28;20128;-64
2022/01/29 06:35:07;;;;;;;30.73;18.98;;;;;;;;;;5089644;28;20044;-65
2022/01/29 06:37:33;;;;;;;31.08;18.80;;;;;;;;;;5084120;28;20066;-64
2022/01/29 06:39:59;;;;;;;28.05;17.35;;;;;;;;;;5075658;28;20072;-64
2022/01/29 06:42:26;;;;;;;29.33;18.83;;;;;;;;;;5094339;28;20051;-65
2022/01/29 06:44:52;;;;;;;32.72;18.25;;;;;;;;;;5094005;28;20592;-65
2022/01/29 06:47:18;;;;;;;31.42;18.27;;;;;;;;;;5083210;28;20085;-65
2022/01/29 06:49:46;;;;;;;34.67;18.85;;;;;;;;;;5085249;28;20072;-65
2022/01/29 06:52:12;;;;;;;27.92;17.65;;;;;;;;;;5094112;28;20044;-64
2022/01/29 06:54:39;;;;;;;32.25;18.50;;;;;;;;;;5094242;28;20375;-65
2022/01/29 06:57:06;;;;;;;27.95;17.75;;;;;;;;;;5093891;28;20032;-66
2022/01/29 06:59:33;;;;;;;26.02;17.27;;;;;;;;;;5093834;28;20055;-66
2022/01/29 07:02:03;;;;;;;28.52;17.77;;;;;;;;;;5093550;28;20401;-67
2022/01/29 07:04:30;;;;;;;27.00;17.25;;;;;;;;;;5094109;28;20388;-66
2022/01/29 07:06:56;;;;;;;23.98;14.30;;;;;;;;;;5093759;28;20044;-66
2022/01/29 07:09:23;;;;;;;26.88;17.80;;;;;;;;;;5093669;28;20048;-66
2022/01/29 07:11:55;;;;;;;21.70;15.07;;;;;;;;;;5093114;28;20042;-66
2022/01/29 07:14:24;;;;;;;26.25;15.88;;;;;;;;;;5080204;28;20032;-66
2022/01/29 07:16:54;;;;;;;26.05;15.68;;;;;;;;;;5070438;28;20044;-66
2022/01/29 07:19:20;;;;;;;22.92;16.38;;;;;;;;;;5080505;28;20037;-66
2022/01/29 07:21:46;;;;;;;25.15;16.35;;;;;;;;;;5090521;28;20040;-66
2022/01/29 07:24:12;;;;;;;27.65;16.05;;;;;;;;;;5094352;28;20094;-66
2022/01/29 07:26:38;;;;;;;21.83;15.02;;;;;;;;;;5093953;28;20067;-66
2022/01/29 07:29:05;;;;;;;22.65;15.80;;;;;;;;;;5094006;28;20443;-66
2022/01/29 07:31:31;;;;;;;29.63;16.33;;;;;;;;;;5093205;28;20143;-66
2022/01/29 07:33:57;;;;;;;28.00;15.52;;;;;;;;;;5093574;28;20048;-65
2022/01/29 07:36:23;;;;;;;21.85;14.32;;;;;;;;;;5093259;28;20101;-65
2022/01/29 07:38:49;;;;;;;22.85;15.40;;;;;;;;;;5078812;28;20083;-65
2022/01/29 07:41:15;;;;;;;22.73;15.13;;;;;;;;;;5068053;28;20036;-66
2022/01/29 07:43:42;;;;;;;24.02;15.35;;;;;;;;;;5088800;28;20055;-65
2022/01/29 07:46:13;;;;;;;25.63;14.80;;;;;;;;;;5074642;28;20445;-65
2022/01/29 07:48:39;;;;;;;24.90;15.68;;;;;;;;;;5058784;28;20477;-65
2022/01/29 07:51:31;;;;;;;21.65;15.18;;;;;;;;;;5074507;28;20043;-66
2022/01/29 07:54:17;;;;;;;22.50;15.02;;;;;;;;;;5073426;28;20031;-65
2022/01/29 07:56:44;;;;;;;22.80;13.68;;;;;;;;;;5059123;28;20028;-65
2022/01/29 07:59:10;;;;;;;23.25;14.82;;;;;;;;;;5092072;28;20040;-66
2022/01/29 08:08:36;;;;;;;23.90;12.68;;;;;;;;;;4995195;28;20073;-83
2022/01/29 08:18:38;;;;;;;27.33;16.13;;;;;;;;;;4936335;29;20086;-83
2022/01/29 08:21:17;;;;;;;32.03;16.48;;;;;;;;;;4920341;29;20036;-84
2022/01/29 08:24:07;;;;;;;28.17;15.07;;;;;;;;;;4970067;28;20048;-84
2022/01/29 08:27:08;;;;;;;23.30;15.40;;;;;;;;;;4981406;28;20421;-84
2022/01/29 08:29:43;;;;;;;20.35;14.50;;;;;;;;;;4994374;28;20057;-79
2022/01/29 08:32:09;;;;;;;23.52;14.25;;;;;;;;;;5024554;28;20048;-79
2022/01/29 08:34:35;;;;;;;23.60;14.77;;;;;;;;;;5086554;28;20375;-82
2022/01/29 08:37:03;;;;;;;22.88;13.55;;;;;;;;;;5114783;27;20042;-83
2022/01/29 08:39:29;;;;;;;24.70;13.63;;;;;;;;;;5097724;28;20044;-84
2022/01/29 08:41:56;;;;;;;19.48;12.50;;;;;;;;;;5079500;28;20043;-83
2022/01/29 08:44:22;;;;;;;16.33;12.15;;;;;;;;;;5093856;27;20159;-83
2022/01/29 08:46:48;;;;;;;21.55;13.00;;;;;;;;;;5092539;28;20075;-83
2022/01/29 08:49:14;;;;;;;25.38;15.38;;;;;;;;;;5107239;27;20035;-83
2022/01/29 08:51:40;;;;;;;47.80;22.98;;;;;;;;;;5116469;27;20091;-83
2022/01/29 08:54:06;;;;;;;33.25;16.75;;;;;;;;;;5098141;28;20046;-83
2022/01/29 08:56:32;;;;;;;48.60;23.13;;;;;;;;;;5114553;28;20151;-84
2022/01/29 08:58:58;;;;;;;26.73;13.55;;;;;;;;;;5113602;28;20051;-83
2022/01/29 09:01:24;;;;;;;25.00;13.60;;;;;;;;;;5097142;28;20035;-84
2022/01/29 09:03:50;;;;;;;20.10;12.57;;;;;;;;;;5125041;28;20047;-83
2022/01/29 09:06:16;;;;;;;23.75;15.00;;;;;;;;;;5139035;28;20062;-82
2022/01/29 09:08:46;;;;;;;14.82;10.80;;;;;;;;;;5104523;28;20103;-84
2022/01/29 09:11:13;;;;;;;16.55;11.18;;;;;;;;;;5098428;28;20035;-83
2022/01/29 09:13:40;;;;;;;21.65;12.02;;;;;;;;;;5115406;28;20047;-83
2022/01/29 09:16:06;;;;;;;14.02;10.23;;;;;;;;;;5117762;28;20570;-83
2022/01/29 09:18:32;;;;;;;14.68;10.02;;;;;;;;;;5120160;28;20035;-84
2022/01/29 09:20:58;;;;;;;14.63;9.68;;;;;;;;;;5121685;28;20043;-83
2022/01/29 09:23:24;;;;;;;16.88;10.18;;;;;;;;;;5098836;28;20031;-84
2022/01/29 09:25:50;;;;;;;14.20;9.90;;;;;;;;;;5110736;28;20039;-83
2022/01/29 09:28:16;;;;;;;21.13;10.23;;;;;;;;;;5109535;28;20039;-84
2022/01/29 09:30:43;;;;;;;13.73;9.55;;;;;;;;;;5105039;28;20052;-82
2022/01/29 09:33:10;;;;;;;17.85;9.88;;;;;;;;;;5119438;28;20099;-83
2022/01/29 09:35:38;;;;;;;16.08;9.80;;;;;;;;;;5118959;28;20043;-84
2022/01/29 09:38:04;;;;;;;15.85;9.68;;;;;;;;;;5101519;28;20126;-84
2022/01/29 09:40:30;;;;;;;18.13;10.15;;;;;;;;;;5123132;27;20435;-84
2022/01/29 09:42:58;;;;;;;13.68;9.50;;;;;;;;;;5136100;27;20035;-84
2022/01/29 09:45:24;;;;;;;14.93;10.05;;;;;;;;;;5133251;27;20530;-83
2022/01/29 09:48:00;;;;;;;14.95;9.80;;;;;;;;;;5106291;27;20121;-82
2022/01/29 09:50:26;;;;;;;18.40;9.73;;;;;;;;;;5108358;27;20476;-83
2022/01/29 09:52:52;;;;;;;16.13;10.18;;;;;;;;;;5107317;27;20067;-83
2022/01/29 09:55:18;;;;;;;13.82;9.60;;;;;;;;;;5106565;27;20102;-83
2022/01/29 09:57:44;;;;;;;14.63;9.90;;;;;;;;;;5122907;27;20103;-83
2022/01/29 10:00:10;;;;;;;14.68;9.07;;;;;;;;;;5123126;27;20070;-83
2022/01/29 10:02:36;;;;;;;11.30;8.70;;;;;;;;;;5106488;27;20031;-83
2022/01/29 10:05:04;;;;;;;16.00;9.43;;;;;;;;;;5107035;27;20046;-83
2022/01/29 10:07:32;;;;;;;12.82;9.20;;;;;;;;;;5123331;27;20409;-84
2022/01/29 10:09:59;;;;;;;9.93;6.43;;;;;;;;;;5124094;27;20085;-83
2022/01/29 10:12:27;;;;;;;12.88;8.10;;;;;;;;;;5123466;27;20039;-83
2022/01/29 10:14:54;;;;;;;12.35;8.50;;;;;;;;;;5122217;27;20060;-84
2022/01/29 10:17:39;;;;;;;17.02;7.25;;;;;;;;;;5100535;28;20055;-83
2022/01/29 10:20:14;;;;;;;11.25;7.85;;;;;;;;;;5087673;28;20103;-83
2022/01/29 10:22:40;;;;;;;13.07;8.10;;;;;;;;;;5085961;28;20057;-84
2022/01/29 10:25:10;;;;;;;12.20;8.15;;;;;;;;;;5085625;28;20096;-83
2022/01/29 10:27:36;;;;;;;11.60;7.18;;;;;;;;;;5103532;28;20100;-84
2022/01/29 10:30:03;;;;;;;12.38;8.40;;;;;;;;;;5087717;28;20437;-83
2022/01/29 10:32:29;;;;;;;13.07;8.00;;;;;;;;;;5102851;28;20066;-84
2022/01/29 10:34:56;;;;;;;13.68;7.40;;;;;;;;;;5086562;28;20103;-83
2022/01/29 10:37:23;;;;;;;12.15;7.68;;;;;;;;;;5090818;28;20126;-84
2022/01/29 10:39:49;;;;;;;11.70;7.90;;;;;;;;;;5081503;28;20036;-84
2022/01/29 10:42:26;;;;;;;11.80;7.55;;;;;;;;;;5080771;28;20119;-83
2022/01/29 10:44:54;;;;;;;11.30;7.28;;;;;;;;;;5080344;28;20036;-83
2022/01/29 10:47:21;;;;;;;11.55;7.13;;;;;;;;;;5080081;28;20040;-84
2022/01/29 10:49:58;;;;;;;11.82;6.55;;;;;;;;;;5096432;28;20142;-84
2022/01/29 10:52:34;;;;;;;7.07;6.10;;;;;;;;;;5096916;28;20048;-84
2022/01/29 10:55:02;;;;;;;12.27;6.53;;;;;;;;;;5079084;28;20084;-84
2022/01/29 10:57:32;;;;;;;11.15;7.72;;;;;;;;;;5095593;28;20043;-84
2022/01/29 10:59:59;;;;;;;10.77;7.32;;;;;;;;;;5095908;28;20039;-84
2022/01/29 11:02:28;;;;;;;10.55;7.15;;;;;;;;;;5097408;28;20053;-84
2022/01/29 11:04:55;;;;;;;12.00;6.28;;;;;;;;;;5097465;28;20503;-84
2022/01/29 11:07:26;;;;;;;10.52;6.82;;;;;;;;;;5096837;28;20048;-84
2022/01/29 11:09:52;;;;;;;9.18;6.25;;;;;;;;;;5097231;28;20498;-84
2022/01/29 11:12:20;;;;;;;9.52;5.90;;;;;;;;;;5097180;28;20593;-84
2022/01/29 11:14:47;;;;;;;8.65;6.03;;;;;;;;;;5097048;28;20047;-84
2022/01/29 11:17:15;;;;;;;10.57;5.60;;;;;;;;;;5097924;28;20047;-83
2022/01/29 11:19:41;;;;;;;9.35;5.00;;;;;;;;;;5097792;28;20097;-84
2022/01/29 11:22:08;;;;;;;7.38;4.70;;;;;;;;;;5098722;28;20122;-84
2022/01/29 11:24:35;;;;;;;5.30;4.03;;;;;;;;;;5098010;28;20051;-83
2022/01/29 11:27:02;;;;;;;8.68;4.05;;;;;;;;;;5098441;28;20486;-84
2022/01/29 11:29:32;;;;;;;7.75;4.53;;;;;;;;;;5099569;28;20039;-84
2022/01/29 11:32:17;;;;;;;4.75;3.30;;;;;;;;;;5099495;28;20042;-84
2022/01/29 11:35:02;;;;;;;6.60;3.20;;;;;;;;;;5097888;28;20128;-84
2022/01/29 11:37:47;;;;;;;7.90;3.42;;;;;;;;;;5098769;28;20065;-84
2022/01/29 11:40:24;;;;;;;6.32;3.22;;;;;;;;;;5099709;28;20036;-84
2022/01/29 11:43:07;;;;;;;7.50;3.30;;;;;;;;;;5081717;28;20032;-84
2022/01/29 11:45:44;;;;;;;8.18;3.42;;;;;;;;;;5097939;28;20044;-84
2022/01/29 11:48:26;;;;;;;7.03;3.22;;;;;;;;;;5082817;28;20043;-84
2022/01/29 11:51:04;;;;;;;6.85;3.42;;;;;;;;;;5083648;28;20379;-83
2022/01/29 11:53:55;;;;;;;6.45;2.92;;;;;;;;;;5100044;28;20126;-83
2022/01/29 11:56:30;;;;;;;8.85;3.92;;;;;;;;;;5098355;28;20044;-83
2022/01/29 11:59:15;;;;;;;4.28;2.92;;;;;;;;;;5097275;28;20031;-84
2022/01/29 12:01:41;;;;;;;10.88;3.53;;;;;;;;;;5080090;28;20045;-84
2022/01/29 12:04:07;;;;;;;5.90;2.88;;;;;;;;;;5096812;28;20432;-83
2022/01/29 12:06:36;;;;;;;5.65;2.55;;;;;;;;;;5097826;28;20387;-84
2022/01/29 12:09:05;;;;;;;8.38;2.75;;;;;;;;;;5096919;28;20122;-84
2022/01/29 12:11:32;;;;;;;4.32;2.60;;;;;;;;;;5079610;28;20085;-84
2022/01/29 12:14:13;;;;;;;5.70;2.22;;;;;;;;;;5096848;28;20065;-84
2022/01/29 12:16:49;;;;;;;4.55;2.53;;;;;;;;;;5080011;28;20063;-85
2022/01/29 12:19:33;;;;;;;7.40;2.58;;;;;;;;;;5080748;28;20096;-84
2022/01/29 12:21:59;;;;;;;6.22;3.20;;;;;;;;;;5101268;28;20035;-82
2022/01/29 12:24:25;;;;;;;4.45;2.58;;;;;;;;;;5090334;28;20700;-84
2022/01/29 12:26:58;;;;;;;4.97;2.53;;;;;;;;;;5092540;27;20032;-85
2022/01/29 12:29:24;;;;;;;5.28;2.13;;;;;;;;;;5071702;28;20036;-83
2022/01/29 12:31:52;;;;;;;5.43;2.42;;;;;;;;;;5087232;28;20491;-84
2022/01/29 12:34:20;;;;;;;6.50;2.60;;;;;;;;;;5066580;28;20422;-84
2022/01/29 12:36:46;;;;;;;5.82;2.72;;;;;;;;;;5083074;28;20048;-82
2022/01/29 12:39:21;;;;;;;6.05;2.60;;;;;;;;;;5113575;28;20059;-83
2022/01/29 12:42:01;;;;;;;3.22;2.30;;;;;;;;;;5085690;28;20103;-84
2022/01/29 12:44:27;;;;;;;5.53;2.70;;;;;;;;;;5064084;28;20039;-84
2022/01/29 12:46:53;;;;;;;5.95;2.63;;;;;;;;;;5067178;28;20032;-84
2022/01/29 12:49:19;;;;;;;7.30;2.58;;;;;;;;;;5066657;28;20374;-85
2022/01/29 12:51:51;;;;;;;7.97;2.45;;;;;;;;;;5081952;28;20044;-85
2022/01/29 12:54:18;;;;;;;4.78;2.60;;;;;;;;;;5085474;28;20058;-83
2022/01/29 12:56:44;;;;;;;6.45;2.63;;;;;;;;;;5082130;28;20059;-83
2022/01/29 12:59:14;;;;;;;7.03;2.80;;;;;;;;;;5083816;28;20491;-83
2022/01/29 13:01:42;;;;;;;5.75;3.17;;;;;;;;;;5083845;28;20071;-85
2022/01/29 13:04:08;;;;;;;6.45;2.70;;;;;;;;;;5101502;28;20051;-82
2022/01/29 13:06:34;;;;;;;7.63;3.00;;;;;;;;;;5093931;28;20040;-83
2022/01/29 13:09:20;;;;;;;5.22;2.45;;;;;;;;;;5085716;28;20035;-79
2022/01/29 13:11:46;;;;;;;9.95;3.17;;;;;;;;;;5086935;28;20048;-82
2022/01/29 13:14:13;;;;;;;7.75;2.90;;;;;;;;;;5084955;28;20503;-77
2022/01/29 13:16:40;;;;;;;6.13;2.55;;;;;;;;;;5077233;28;20044;-76
2022/01/29 13:19:06;;;;;;;6.10;2.60;;;;;;;;;;5087317;28;20074;-83
2022/01/29 13:21:33;;;;;;;7.20;2.30;;;;;;;;;;5093313;28;20394;-83
2022/01/29 13:24:03;;;;;;;6.82;2.65;;;;;;;;;;5065079;28;20040;-83
2022/01/29 13:26:30;;;;;;;7.15;2.60;;;;;;;;;;5086758;28;20508;-83
2022/01/29 13:29:03;;;;;;;10.77;3.35;;;;;;;;;;5092095;27;20042;-83
2022/01/29 13:31:29;;;;;;;;;;;;;;;;;;5093413;28;20043;-83
2022/01/29 13:33:57;;;;;;;13.57;3.63;;;;;;;;;;5094655;27;19915;-83
2022/01/29 13:36:35;;;;;;;12.25;3.30;;;;;;;;;;5078991;28;20028;-84
2022/01/29 13:39:10;;;;;;;6.22;2.85;;;;;;;;;;5096006;27;20043;-82
2022/01/29 13:41:36;;;;;;;7.85;3.45;;;;;;;;;;5085570;28;20039;-82
2022/01/29 13:44:21;;;;;;;9.95;4.25;;;;;;;;;;5078753;27;20028;-83
2022/01/29 13:47:04;;;;;;;9.55;3.20;;;;;;;;;;5093794;27;20044;-83
2022/01/29 13:49:30;;;;;;;5.38;2.85;;;;;;;;;;5094619;28;20502;-83
2022/01/29 13:51:57;;;;;;;7.43;2.78;;;;;;;;;;5090084;28;20039;-84
2022/01/29 13:54:23;;;;;;;6.13;2.42;;;;;;;;;;5089589;28;20043;-83
2022/01/29 13:57:07;;;;;;;11.18;2.92;;;;;;;;;;5095383;28;20065;-83
2022/01/29 14:03:05;;;;;;;8.05;2.88;;;;;;;;;;5027341;28;20045;-84
2022/01/29 14:05:34;;;;;;;9.23;4.50;;;;;;;;;;5063411;28;20499;-84
2022/01/29 14:08:16;;;;;;;7.97;4.18;;;;;;;;;;5108610;27;20046;-83
2022/01/29 14:10:42;;;;;;;8.40;3.03;;;;;;;;;;5085530;28;20048;-84
2022/01/29 14:13:08;;;;;;;6.78;2.45;;;;;;;;;;5076883;28;20077;-84
2022/01/29 14:15:35;;;;;;;7.07;2.60;;;;;;;;;;5098526;28;20032;-84
2022/01/29 14:18:01;;;;;;;6.93;3.15;;;;;;;;;;5109997;27;20475;-83
2022/01/29 14:20:27;;;;;;;7.00;2.95;;;;;;;;;;5100931;27;20183;-83
2022/01/29 15:00:30;;;;;;;7.30;2.90;;;;;;;;;;5143721;27;20042;-88
2022/01/29 15:03:07;;;;;;;6.45;2.42;;;;;;;;;;5123301;27;20042;-85
2022/01/29 15:32:55;;;;;;;7.53;2.38;;;;;;;;;;5102362;28;20398;-84
2022/01/29 15:36:41;;;;;;;8.15;2.08;;;;;;;;;;5005853;28;20061;-86
2022/01/29 15:40:07;;;;;;;11.93;2.83;;;;;;;;;;4973636;28;20096;-85
2022/01/29 15:46:53;;;;;;;8.45;2.42;;;;;;;;;;4979118;28;20057;-85
2022/01/29 15:53:38;;;;;;;9.30;2.90;;;;;;;;;;5012947;28;20050;-86
2022/01/29 15:57:12;;;;;;;10.93;2.17;;;;;;;;;;5063918;28;20430;-86
2022/01/29 16:14:00;;;;;;;16.10;3.67;;;;;;;;;;4915336;29;20096;-85
2022/01/29 16:44:16;;;;;;;16.30;3.70;;;;;;;;;;5104145;22;20043;-66
2022/01/29 16:46:42;;;;;;;13.65;3.53;;;;;;;;;;5057681;28;20455;-67
2022/01/29 16:49:09;;;;;;;19.20;4.65;;;;;;;;;;5057859;28;20493;-69
2022/01/29 16:51:37;;;;;;;21.00;4.28;;;;;;;;;;5053302;28;20093;-69
2022/01/29 16:54:04;;;;;;;12.32;4.07;;;;;;;;;;5074284;28;20036;-67
2022/01/29 16:56:30;;;;;;;19.05;4.95;;;;;;;;;;5057734;28;20485;-67
2022/01/29 16:58:57;;;;;;;13.43;3.88;;;;;;;;;;5057450;28;20044;-68
2022/01/29 17:01:23;;;;;;;18.73;3.72;;;;;;;;;;5057247;28;20425;-68
2022/01/29 17:03:51;;;;;;;17.02;4.07;;;;;;;;;;5057943;28;20435;-67
2022/01/29 17:06:18;;;;;;;19.75;4.28;;;;;;;;;;5057253;28;20123;-67
2022/01/29 17:08:44;;;;;;;18.77;4.20;;;;;;;;;;5056975;28;20048;-69